Time;durP1;ratioP1;P1;durP2;ratioP2;P2;SDS_P1;SDS_P2;PMS_P1;PMS_P2;Temp;Humidity;BMP_temperature;BMP_pressure;BME280_temperature;BME280_humidity;BME280_pressure;Samples;Min_cycle;Max_cycle;Signal;HPM_P1;HPM_P2
2022/10/17 00:00:11;;;;;;;1999.90;999.90;;;;;;;12.85;100.00;95122.38;5116784;28;20205;-81
2022/10/17 00:02:36;;;;;;;1999.90;999.90;;;;;;;12.81;100.00;95124.44;5117238;28;20202;-65
2022/10/17 00:05:02;;;;;;;1999.90;999.90;;;;;;;12.70;100.00;95121.16;5117107;28;20191;-71
2022/10/17 00:07:29;;;;;;;1999.90;999.90;;;;;;;12.66;100.00;95121.22;5116774;28;20191;-72
2022/10/17 00:09:54;;;;;;;1999.90;999.90;;;;;;;12.62;100.00;95130.72;5115398;28;20171;-71
2022/10/17 00:12:19;;;;;;;1999.90;999.90;;;;;;;12.58;100.00;95130.00;5116615;28;20221;-74
2022/10/17 00:14:45;;;;;;;1999.90;999.90;;;;;;;12.56;100.00;95138.66;5117105;28;20172;-74
2022/10/17 00:17:10;;;;;;;1999.90;999.90;;;;;;;12.56;100.00;95137.88;5116397;28;20185;-71
2022/10/17 00:19:36;;;;;;;1999.90;999.90;;;;;;;12.57;100.00;95131.22;5116556;28;20199;-58
2022/10/17 00:22:01;;;;;;;1999.90;999.90;;;;;;;12.55;100.00;95136.34;5116773;28;20174;-57
2022/10/17 00:24:26;;;;;;;1999.90;999.90;;;;;;;12.54;100.00;95145.75;5116529;28;20181;-57
2022/10/17 00:26:52;;;;;;;1999.90;999.90;;;;;;;12.52;100.00;95131.69;5116566;28;20220;-57
2022/10/17 00:29:17;;;;;;;1999.90;999.90;;;;;;;12.52;100.00;95131.69;5116101;28;20228;-57
2022/10/17 00:31:42;;;;;;;1999.90;999.90;;;;;;;12.48;100.00;95131.78;5116573;28;20171;-57
2022/10/17 00:34:08;;;;;;;1999.90;999.90;;;;;;;12.48;100.00;95141.94;5116705;28;20179;-57
2022/10/17 00:36:33;;;;;;;1999.90;999.90;;;;;;;12.47;100.00;95137.66;5116146;28;20185;-57
2022/10/17 00:38:59;;;;;;;1999.90;999.90;;;;;;;12.46;100.00;95141.63;5115933;28;20195;-57
2022/10/17 00:41:31;;;;;;;1999.90;999.90;;;;;;;12.46;100.00;95133.41;5116623;28;20170;-57
2022/10/17 00:44:07;;;;;;;1999.90;999.90;;;;;;;12.44;100.00;95135.78;5116166;28;20269;-57
2022/10/17 00:46:37;;;;;;;1999.90;999.90;;;;;;;12.39;100.00;95133.53;5116911;28;20179;-57
2022/10/17 00:49:08;;;;;;;1999.90;999.90;;;;;;;12.33;100.00;95135.97;5116671;28;20238;-57
2022/10/17 00:51:48;;;;;;;1999.90;999.90;;;;;;;12.28;100.00;95146.66;5116753;28;20182;-57
2022/10/17 00:54:15;;;;;;;1999.90;999.90;;;;;;;12.21;100.00;95144.03;5112903;28;20258;-57
2022/10/17 00:56:42;;;;;;;1999.90;999.90;;;;;;;12.22;100.00;95145.59;5115946;28;20168;-58
2022/10/17 00:59:10;;;;;;;1999.90;999.90;;;;;;;12.22;100.00;95151.06;5115487;28;20209;-65
2022/10/17 01:01:35;;;;;;;1999.90;999.90;;;;;;;12.17;100.00;95157.03;5116796;27;20170;-60
2022/10/17 01:04:01;;;;;;;1999.90;999.90;;;;;;;12.16;100.00;95158.19;5115763;28;20205;-59
2022/10/17 01:06:26;;;;;;;1999.90;999.90;;;;;;;12.12;100.00;95157.50;5116392;28;20179;-59
2022/10/17 01:08:52;;;;;;;1999.90;999.90;;;;;;;12.10;100.00;95149.69;5116603;28;20205;-59
2022/10/17 01:12:06;;;;;;;1999.90;999.90;;;;;;;12.05;100.00;95146.66;5115617;28;20266;-59
2022/10/17 01:14:59;;;;;;;1999.90;999.90;;;;;;;12.02;100.00;95153.00;5080926;28;20230;-66
2022/10/17 01:17:50;;;;;;;1999.90;999.90;;;;;;;11.98;100.00;95141.34;5115996;28;20194;-59
2022/10/17 01:20:40;;;;;;;1999.90;999.90;;;;;;;11.97;100.00;95150.72;5084507;28;20217;-61
2022/10/17 01:23:25;;;;;;;1999.90;999.90;;;;;;;12.01;100.00;95145.97;5116200;28;20202;-61
2022/10/17 01:26:06;;;;;;;1999.90;999.90;;;;;;;12.00;100.00;95149.91;5115955;28;20266;-61
2022/10/17 01:29:05;;;;;;;1999.90;999.90;;;;;;;11.99;100.00;95138.16;5115287;28;20311;-61
2022/10/17 01:31:40;;;;;;;1999.90;999.90;;;;;;;11.96;100.00;95138.25;5116228;28;20175;-62
2022/10/17 01:34:13;;;;;;;1999.90;999.90;;;;;;;11.90;100.00;95139.91;5115547;28;20226;-59
2022/10/17 01:37:01;;;;;;;1999.90;999.90;;;;;;;11.87;100.00;95130.56;5115257;28;20182;-59
2022/10/17 01:39:43;;;;;;;1999.90;999.90;;;;;;;11.83;100.00;95124.38;5115793;28;20219;-59
2022/10/17 01:42:41;;;;;;;1999.90;999.90;;;;;;;11.82;100.00;95133.00;5115224;28;20267;-59
2022/10/17 01:45:23;;;;;;;1999.90;999.90;;;;;;;11.80;100.00;95113.53;5115147;28;20165;-59
2022/10/17 01:47:51;;;;;;;1999.90;999.90;;;;;;;11.75;100.00;95127.66;5115653;28;20187;-59
2022/10/17 01:50:42;;;;;;;1999.90;999.90;;;;;;;11.68;100.00;95117.63;5114943;28;20185;-59
2022/10/17 01:53:13;;;;;;;1999.90;999.90;;;;;;;11.71;100.00;95121.47;5115506;28;20182;-58
2022/10/17 01:55:42;;;;;;;1999.90;999.90;;;;;;;11.73;100.00;95125.34;5115414;28;20166;-59
2022/10/17 01:58:30;;;;;;;1999.90;999.90;;;;;;;11.70;100.00;95115.25;5114587;28;20286;-58
2022/10/17 02:01:00;;;;;;;1999.90;999.90;;;;;;;11.68;100.00;95116.84;5115128;28;20237;-58
2022/10/17 02:03:27;;;;;;;1999.90;999.90;;;;;;;11.67;100.00;95115.28;5114643;28;20204;-59
2022/10/17 02:05:52;;;;;;;1999.90;999.90;;;;;;;11.69;100.00;95118.41;5115180;28;20174;-58
2022/10/17 02:08:29;;;;;;;1999.90;999.90;;;;;;;11.66;100.00;95119.97;5114550;28;20187;-58
2022/10/17 02:11:00;;;;;;;1999.90;999.90;;;;;;;11.65;100.00;95126.66;5115567;28;20222;-66
2022/10/17 02:13:57;;;;;;;1999.90;999.90;;;;;;;11.62;100.00;95113.06;5115249;28;20175;-74
2022/10/17 02:16:40;;;;;;;1999.90;999.90;;;;;;;11.62;100.00;95113.06;5114550;28;20171;-76
2022/10/17 02:19:24;;;;;;;1999.90;999.90;;;;;;;11.57;100.00;95116.22;5115009;28;20183;-75
2022/10/17 02:22:03;;;;;;;1999.90;999.90;;;;;;;11.52;100.00;95114.75;5114387;28;20178;-75
2022/10/17 02:24:41;;;;;;;1999.90;999.90;;;;;;;11.52;100.00;95109.28;5114188;28;20164;-76
2022/10/17 02:27:12;;;;;;;1999.90;999.90;;;;;;;11.49;100.00;95114.78;5114719;28;20195;-74
2022/10/17 02:29:51;;;;;;;1999.90;999.90;;;;;;;11.46;100.00;95116.41;5114809;28;20215;-59
2022/10/17 02:32:43;;;;;;;1999.90;999.90;;;;;;;11.42;100.00;95120.38;5114859;28;20196;-59
2022/10/17 02:35:14;;;;;;;1999.90;999.90;;;;;;;11.34;100.00;95130.66;5077272;28;20231;-60
2022/10/17 02:37:41;;;;;;;1999.90;999.90;;;;;;;11.32;100.00;95132.22;5114895;28;20168;-59
2022/10/17 02:40:09;;;;;;;1999.90;999.90;;;;;;;11.32;100.00;95132.22;5114655;28;20205;-60
2022/10/17 02:42:35;;;;;;;1999.90;999.90;;;;;;;11.27;100.00;95138.19;5114295;28;20240;-59
2022/10/17 02:45:01;;;;;;;1999.90;999.90;;;;;;;11.24;100.00;95136.25;5114186;28;20168;-59
2022/10/17 02:47:49;;;;;;;1999.90;999.90;;;;;;;11.22;100.00;95139.41;5113870;28;20172;-59
2022/10/17 02:50:15;;;;;;;1999.90;999.90;;;;;;;11.20;100.00;95141.00;5113802;28;20173;-69
2022/10/17 02:52:47;;;;;;;1999.90;999.90;;;;;;;11.19;100.00;95139.47;5114341;28;20172;-70
2022/10/17 02:55:18;;;;;;;1999.90;999.90;;;;;;;11.19;100.00;95144.94;5114060;28;20180;-69
2022/10/17 02:57:51;;;;;;;1999.90;999.90;;;;;;;11.16;100.00;95134.81;5113817;28;20169;-70
2022/10/17 03:00:18;;;;;;;1999.90;999.90;;;;;;;11.14;100.00;95137.22;5114468;28;20197;-69
2022/10/17 03:02:46;;;;;;;1999.90;999.90;;;;;;;11.10;100.00;95141.94;5113961;28;20233;-70
2022/10/17 03:05:15;;;;;;;1999.90;999.90;;;;;;;11.09;100.00;95145.84;5113714;28;20190;-72
2022/10/17 03:07:41;;;;;;;1999.90;999.90;;;;;;;11.08;100.00;95139.63;5114067;28;20248;-72
2022/10/17 03:10:06;;;;;;;1999.90;999.90;;;;;;;11.08;100.00;95138.84;5113660;28;20210;-72
2022/10/17 03:12:32;;;;;;;1999.90;999.90;;;;;;;11.08;100.00;95141.59;5114445;28;20169;-73
2022/10/17 03:14:57;;;;;;;1999.90;999.90;;;;;;;11.06;100.00;95136.53;5114047;28;20199;-72
2022/10/17 03:17:22;;;;;;;1999.90;999.90;;;;;;;11.06;100.00;95141.22;5113869;28;20183;-73
2022/10/17 03:19:48;;;;;;;1999.90;999.90;;;;;;;11.05;100.00;95136.94;5113639;28;20207;-73
2022/10/17 03:22:13;;;;;;;1999.90;999.90;;;;;;;11.05;100.00;95139.69;5113852;28;20180;-72
2022/10/17 03:24:38;;;;;;;1999.90;999.90;;;;;;;11.02;100.00;95146.75;5113666;28;20181;-62
2022/10/17 03:27:04;;;;;;;1999.90;999.90;;;;;;;11.01;100.00;95138.94;5114401;28;20172;-57
2022/10/17 03:29:29;;;;;;;1999.90;999.90;;;;;;;10.93;100.00;95148.44;5113380;28;20250;-57
2022/10/17 03:31:55;;;;;;;1999.90;999.90;;;;;;;10.93;100.00;95143.72;5114548;28;20291;-57
2022/10/17 03:34:20;;;;;;;1999.90;999.90;;;;;;;10.91;100.00;95145.31;5113369;28;20212;-57
2022/10/17 03:36:46;;;;;;;1999.90;999.90;;;;;;;10.86;100.00;95148.53;5113466;28;20181;-57
2022/10/17 03:39:11;;;;;;;1999.90;999.90;;;;;;;10.87;100.00;95156.31;5113343;28;20177;-57
2022/10/17 03:41:37;;;;;;;1999.90;999.90;;;;;;;10.84;100.00;95156.34;5113838;28;20179;-69
2022/10/17 03:44:02;;;;;;;1999.90;999.90;;;;;;;10.86;100.00;95145.81;5115468;28;20187;-58
2022/10/17 03:46:27;;;;;;;1999.90;999.90;;;;;;;10.85;100.00;95155.94;5117401;28;20218;-58
2022/10/17 03:48:53;;;;;;;1999.90;999.90;;;;;;;10.84;100.00;95161.81;5117192;28;20172;-58
2022/10/17 03:51:18;;;;;;;1999.90;999.90;;;;;;;10.83;100.00;95157.53;5117029;28;20228;-57
2022/10/17 03:53:44;;;;;;;1999.90;999.90;;;;;;;10.80;100.00;95166.53;5116892;28;20187;-58
2022/10/17 03:56:18;;;;;;;1999.90;999.90;;;;;;;10.78;100.00;95155.28;5116948;28;20179;-58
2022/10/17 03:58:44;;;;;;;1999.90;999.90;;;;;;;10.68;100.00;95158.91;5116827;28;20228;-58
2022/10/17 04:01:12;;;;;;;1999.90;999.90;;;;;;;10.69;100.00;95160.44;5116941;28;20264;-65
2022/10/17 04:03:38;;;;;;;1999.90;999.90;;;;;;;10.63;100.00;95151.19;5117547;28;20192;-58
2022/10/17 04:06:04;;;;;;;1999.90;999.90;;;;;;;10.56;100.00;95165.66;5117527;28;20183;-58
2022/10/17 04:08:30;;;;;;;1999.90;999.90;;;;;;;10.54;100.00;95165.31;5116985;28;20184;-58
2022/10/17 04:10:59;;;;;;;1999.90;999.90;;;;;;;10.53;100.00;95168.44;5117292;28;20205;-57
2022/10/17 04:13:25;;;;;;;1999.90;999.90;;;;;;;10.53;100.00;95168.44;5116791;28;20172;-58
2022/10/17 04:16:04;;;;;;;1999.90;999.90;;;;;;;10.48;100.00;95171.66;5116849;28;20171;-57
2022/10/17 04:18:30;;;;;;;1999.90;999.90;;;;;;;10.45;100.00;95175.19;5117061;28;20173;-59
2022/10/17 04:20:55;;;;;;;1999.90;999.90;;;;;;;10.34;100.00;95166.34;5116595;28;20259;-58
2022/10/17 04:23:21;;;;;;;1999.90;999.90;;;;;;;10.37;100.00;95171.00;5116645;28;20209;-77
2022/10/17 04:25:47;;;;;;;1999.90;999.90;;;;;;;10.41;100.00;95171.72;5117213;28;20231;-77
2022/10/17 04:28:12;;;;;;;1999.90;999.90;;;;;;;10.46;100.00;95174.00;5116698;28;20219;-76
2022/10/17 04:30:39;;;;;;;1999.90;999.90;;;;;;;10.45;100.00;95167.75;5116857;28;20173;-75
2022/10/17 04:33:04;;;;;;;1999.90;999.90;;;;;;;10.37;100.00;95166.28;5116838;28;20198;-74
2022/10/17 04:35:29;;;;;;;1999.90;999.90;;;;;;;10.33;100.00;95159.31;5116985;28;20179;-74
2022/10/17 04:37:55;;;;;;;1999.90;999.90;;;;;;;10.30;100.00;95157.41;5116416;28;20198;-58
2022/10/17 04:40:20;;;;;;;1999.90;999.90;;;;;;;10.32;100.00;95157.78;5116749;28;20239;-58
2022/10/17 04:42:46;;;;;;;1999.90;999.90;;;;;;;10.35;100.00;95156.97;5116055;28;20208;-59
2022/10/17 04:45:11;;;;;;;1999.90;999.90;;;;;;;10.43;100.00;95163.88;5116325;28;20210;-58
2022/10/17 04:47:37;;;;;;;1999.90;999.90;;;;;;;10.43;100.00;95169.34;5116105;28;20206;-59
2022/10/17 04:50:03;;;;;;;1999.90;999.90;;;;;;;10.40;100.00;95165.47;5115723;28;20233;-58
2022/10/17 04:52:28;;;;;;;1999.90;999.90;;;;;;;10.39;100.00;95166.66;5116194;28;20184;-58
2022/10/17 04:54:54;;;;;;;1999.90;999.90;;;;;;;10.40;100.00;95167.41;5115381;28;20263;-58
2022/10/17 04:57:19;;;;;;;1999.90;999.90;;;;;;;10.40;100.00;95175.59;5116159;28;20205;-65
2022/10/17 04:59:45;;;;;;;1999.90;999.90;;;;;;;10.40;100.00;95178.34;5115974;28;20199;-58
2022/10/17 05:02:10;;;;;;;1999.90;999.90;;;;;;;10.35;100.00;95168.66;5115977;28;20202;-57
2022/10/17 05:04:36;;;;;;;1999.90;999.90;;;;;;;10.35;100.00;95184.25;5115608;28;20218;-57
2022/10/17 05:07:01;;;;;;;1999.90;999.90;;;;;;;10.34;100.00;95178.00;5116125;28;20267;-57
2022/10/17 05:09:26;;;;;;;1999.90;999.90;;;;;;;10.33;100.00;95186.59;5116315;28;20232;-57
2022/10/17 05:11:52;;;;;;;1999.90;999.90;;;;;;;10.31;100.00;95194.44;5116160;28;20166;-57
2022/10/17 05:14:17;;;;;;;1999.90;999.90;;;;;;;10.29;100.00;95196.78;5115681;28;20176;-57
2022/10/17 05:16:43;;;;;;;1999.90;999.90;;;;;;;10.26;100.00;95192.16;5115829;28;20176;-71
2022/10/17 05:19:08;;;;;;;1999.90;999.90;;;;;;;10.24;100.00;95200.75;5115293;28;20176;-75
2022/10/17 05:21:36;;;;;;;1999.90;999.90;;;;;;;10.21;100.00;95200.78;5115494;28;20194;-76
2022/10/17 05:24:05;;;;;;;1999.90;999.90;;;;;;;10.19;100.00;95198.44;5116359;28;20210;-77
2022/10/17 05:26:30;;;;;;;1999.90;999.90;;;;;;;10.20;100.00;95199.97;5115325;28;20197;-77
2022/10/17 05:28:57;;;;;;;1999.90;999.90;;;;;;;10.24;100.00;95197.25;5114978;28;20224;-77
2022/10/17 05:31:22;;;;;;;1999.90;999.90;;;;;;;10.25;100.00;95201.50;5115634;28;20178;-78
2022/10/17 05:33:48;;;;;;;1999.90;999.90;;;;;;;10.24;100.00;95205.44;5115780;28;20176;-71
2022/10/17 05:36:13;;;;;;;1999.90;999.90;;;;;;;10.25;100.00;95196.06;5115598;28;20192;-80
2022/10/17 05:38:38;;;;;;;1999.90;999.90;;;;;;;10.31;100.00;95210.81;5115698;28;20172;-74
2022/10/17 05:41:04;;;;;;;1999.90;999.90;;;;;;;10.31;100.00;95211.59;5115426;28;20192;-76
2022/10/17 05:43:30;;;;;;;1999.90;999.90;;;;;;;10.40;100.00;95213.81;5115131;28;20204;-76
2022/10/17 05:45:56;;;;;;;1999.90;999.90;;;;;;;10.47;100.00;95219.22;5114599;28;20232;-63
2022/10/17 05:48:22;;;;;;;1999.90;999.90;;;;;;;10.65;100.00;95209.66;5114630;28;20218;-69
2022/10/17 05:50:48;;;;;;;1999.90;999.90;;;;;;;10.94;100.00;95210.09;5114497;28;20196;-58
2022/10/17 05:53:14;;;;;;;1999.90;999.90;;;;;;;11.40;100.00;95204.78;5115425;28;20197;-61
2022/10/17 05:55:40;;;;;;;1999.90;999.90;;;;;;;11.69;100.00;95195.00;5114181;28;20230;-59
2022/10/17 05:58:05;;;;;;;1999.90;999.90;;;;;;;12.14;100.00;95193.44;5114608;28;20193;-58
2022/10/17 06:00:31;;;;;;;1999.90;999.90;;;;;;;12.59;100.00;95191.81;5114439;28;20233;-59
2022/10/17 06:02:56;;;;;;;1999.90;999.90;;;;;;;13.07;100.00;95194.78;5114537;28;20194;-59
2022/10/17 06:05:21;;;;;;;1999.90;999.90;;;;;;;13.50;100.00;95203.63;5114927;28;20199;-59
2022/10/17 06:07:49;;;;;;;1999.90;999.90;;;;;;;13.52;100.00;95208.69;5114490;28;20200;-59
2022/10/17 06:10:16;;;;;;;1999.90;999.90;;;;;;;13.92;100.00;95199.91;5114408;28;20171;-58
2022/10/17 06:12:42;;;;;;;1999.90;999.90;;;;;;;14.52;100.00;95204.69;5114580;28;20252;-58
2022/10/17 06:15:08;;;;;;;1999.90;999.90;;;;;;;14.50;100.00;95207.06;5114125;28;20180;-59
2022/10/17 06:17:33;;;;;;;1999.90;999.90;;;;;;;14.58;100.00;95213.16;5114138;28;20175;-58
2022/10/17 06:19:59;;;;;;;1999.90;999.90;;;;;;;14.63;100.00;95216.16;5114422;28;20203;-58
2022/10/17 06:22:24;;;;;;;1999.90;999.90;;;;;;;14.76;100.00;95214.25;5114194;28;20328;-57
2022/10/17 06:24:51;;;;;;;1999.90;999.90;;;;;;;14.75;100.00;95222.94;5113757;28;20263;-58
2022/10/17 06:27:16;;;;;;;1999.90;999.90;;;;;;;14.77;100.00;95221.28;5114179;28;20175;-59
2022/10/17 06:29:42;;;;;;;1999.90;999.90;;;;;;;15.08;100.00;95216.88;5114144;28;20184;-60
2022/10/17 06:32:07;;;;;;;1999.90;999.90;;;;;;;15.43;100.00;95213.13;5114080;28;20171;-59
2022/10/17 06:34:32;;;;;;;1999.90;999.90;;;;;;;15.54;100.00;95210.81;5113821;28;20209;-59
2022/10/17 06:36:58;;;;;;;1999.90;999.90;;;;;;;15.59;100.00;95210.25;5114520;28;20190;-60
2022/10/17 06:39:25;;;;;;;1999.90;999.90;;;;;;;15.81;100.00;95204.88;5114476;28;20280;-60
2022/10/17 06:41:51;;;;;;;1999.90;999.90;;;;;;;16.19;100.00;95191.84;5114045;28;20172;-61
2022/10/17 06:44:16;;;;;;;1999.90;999.90;;;;;;;16.61;100.00;95193.16;5114110;28;20180;-60
2022/10/17 06:46:42;;;;;;;1999.90;999.90;;;;;;;17.09;100.00;95197.38;5114934;28;20175;-59
2022/10/17 06:49:09;;;;;;;1999.90;999.90;;;;;;;17.68;100.00;95202.66;5114236;28;20259;-62
2022/10/17 06:51:35;;;;;;;1999.90;999.90;;;;;;;18.11;100.00;95174.88;5113944;28;20193;-59
2022/10/17 06:54:01;;;;;;;1999.90;999.90;;;;;;;18.94;100.00;95151.16;5113327;28;20168;-60
2022/10/17 06:56:26;;;;;;;1999.90;999.90;;;;;;;18.94;100.00;95151.16;5113931;28;20187;-59
2022/10/17 06:58:52;;;;;;;1999.90;999.90;;;;;;;20.16;100.00;95105.06;5113724;28;20179;-59
2022/10/17 07:01:18;;;;;;;1999.90;999.90;;;;;;;20.79;100.00;95084.38;5114499;28;20199;-60
2022/10/17 07:03:47;;;;;;;1999.90;999.90;;;;;;;21.09;100.00;95066.50;5114317;28;20196;-61
2022/10/17 07:06:12;;;;;;;1999.90;999.90;;;;;;;22.11;100.00;95031.69;5114283;28;20176;-63
2022/10/17 07:08:42;;;;;;;1999.90;999.90;;;;;;;22.15;100.00;95649.94;5113777;28;20182;-59
2022/10/17 07:11:16;;;;;;;1999.90;999.90;;;;;;;22.52;100.00;95950.47;5114392;28;20255;-59
2022/10/17 07:13:42;;;;;;;1999.90;999.90;;;;;;;23.30;100.00;96015.28;5113828;28;20175;-59
2022/10/17 07:16:08;;;;;;;1999.90;999.90;;;;;;;23.94;100.00;96033.28;5113712;28;20175;-61
2022/10/17 07:18:33;;;;;;;1999.90;999.90;;;;;;;23.96;100.00;96056.66;5116107;28;20168;-59
2022/10/17 07:21:00;;;;;;;1999.90;999.90;;;;;;;23.83;100.00;96069.28;5117706;28;20235;-59
2022/10/17 07:23:25;;;;;;;1999.90;999.90;;;;;;;23.79;100.00;96075.03;5118078;28;20172;-59
2022/10/17 07:25:51;;;;;;;1999.90;999.90;;;;;;;23.64;100.00;96073.41;5117919;28;20189;-71
2022/10/17 07:28:17;;;;;;;1999.90;999.90;;;;;;;24.04;100.00;96073.84;5117475;28;20229;-71
2022/10/17 07:30:43;;;;;;;1999.90;999.90;;;;;;;24.11;100.00;96079.06;5117826;28;20180;-70
2022/10/17 07:33:08;;;;;;;1999.90;999.90;;;;;;;24.75;100.00;96080.16;5118081;28;20172;-73
2022/10/17 07:35:34;;;;;;;1999.90;999.90;;;;;;;24.84;100.00;96085.69;5117763;28;20245;-73
2022/10/17 07:37:59;;;;;;;1999.90;999.90;;;;;;;25.18;100.00;96087.84;5117386;28;20180;-71
2022/10/17 07:40:24;;;;;;;1999.90;999.90;;;;;;;25.86;95.93;96103.25;5117848;28;20203;-69
2022/10/17 07:42:50;;;;;;;1999.90;999.90;;;;;;;26.11;96.91;96102.63;5117103;28;20171;-64
2022/10/17 07:45:15;;;;;;;1999.90;999.90;;;;;;;26.20;92.22;96116.53;5117417;28;20176;-67
2022/10/17 07:47:41;;;;;;;1999.90;999.90;;;;;;;26.21;91.60;96117.28;5117158;28;20175;-65
2022/10/17 07:50:07;;;;;;;1999.90;999.90;;;;;;;26.22;88.75;96113.97;5117184;28;20168;-65
2022/10/17 07:52:33;;;;;;;1999.90;999.90;;;;;;;25.95;91.85;96111.56;5117028;28;20239;-68
2022/10/17 07:54:58;;;;;;;1999.90;999.90;;;;;;;26.03;88.67;96114.75;5117530;28;20168;-68
2022/10/17 07:57:24;;;;;;;1999.90;999.90;;;;;;;26.85;85.77;96115.09;5116870;28;20213;-66
2022/10/17 07:59:50;;;;;;;1999.90;999.90;;;;;;;27.19;83.69;96117.78;5116969;28;20191;-61
2022/10/17 08:02:24;;;;;;;1999.90;999.90;;;;;;;27.49;79.76;96124.72;5117622;28;20225;-62
2022/10/17 08:04:50;;;;;;;1999.90;999.90;;;;;;;28.23;76.43;96123.53;5117068;28;20238;-71
2022/10/17 08:07:16;;;;;;;1999.90;999.90;;;;;;;28.46;74.02;96126.53;5117197;28;20175;-71
2022/10/17 08:09:42;;;;;;;1999.90;999.90;;;;;;;28.29;73.79;96121.56;5117283;28;20164;-70
2022/10/17 08:12:08;;;;;;;1999.90;999.90;;;;;;;28.89;71.38;96128.00;5116464;28;20176;-70
2022/10/17 08:14:33;;;;;;;1999.90;999.90;;;;;;;29.38;68.38;96122.56;5116717;28;20168;-70
2022/10/17 08:16:59;;;;;;;1999.90;999.90;;;;;;;29.59;65.78;96123.91;5117014;28;20179;-70
2022/10/17 08:19:24;;;;;;;1999.90;999.90;;;;;;;30.75;60.99;96130.22;5116730;28;20225;-62
2022/10/17 08:21:51;;;;;;;1999.90;999.90;;;;;;;30.26;59.64;96130.31;5116562;28;20172;-61
2022/10/17 08:24:17;;;;;;;1999.90;999.90;;;;;;;29.84;60.53;96124.94;5117369;28;20193;-61
2022/10/17 08:26:42;;;;;;;1999.90;999.90;;;;;;;29.11;66.01;96119.66;5116571;28;20296;-61
2022/10/17 08:29:15;;;;;;;1999.90;999.90;;;;;;;29.65;63.76;96116.22;5115988;28;20262;-60
2022/10/17 08:31:41;;;;;;;1999.90;999.90;;;;;;;29.35;65.93;96117.19;5116052;28;20195;-60
2022/10/17 08:34:06;;;;;;;1999.90;999.90;;;;;;;30.12;63.89;96122.88;5116350;28;20215;-60
2022/10/17 08:36:31;;;;;;;1999.90;999.90;;;;;;;30.25;60.86;96137.22;5116878;28;20163;-69
2022/10/17 08:38:57;;;;;;;1999.90;999.90;;;;;;;29.71;63.27;96133.88;5116879;28;20202;-60
2022/10/17 08:41:41;;;;;;;1999.90;999.90;;;;;;;29.96;62.40;96130.06;5116317;28;20203;-69
2022/10/17 08:44:34;;;;;;;1999.90;999.90;;;;;;;28.99;66.58;96123.72;5116206;28;20324;-69
2022/10/17 08:47:04;;;;;;;1999.90;999.90;;;;;;;28.67;68.13;96125.09;5116631;28;20275;-69
2022/10/17 08:49:46;;;;;;;1999.90;999.90;;;;;;;28.44;69.29;96118.59;5116199;28;20172;-69
2022/10/17 08:52:28;;;;;;;1999.90;999.90;;;;;;;28.72;68.75;96124.34;5116704;28;20168;-68
2022/10/17 08:54:54;;;;;;;1999.90;999.90;;;;;;;28.44;70.17;96120.66;5116691;28;20256;-70
2022/10/17 08:57:19;;;;;;;1999.90;999.90;;;;;;;28.96;69.04;96119.09;5116075;28;20188;-61
2022/10/17 08:59:51;;;;;;;1999.90;999.90;;;;;;;29.87;66.47;96121.09;5115983;28;20215;-71
2022/10/17 09:02:35;;;;;;;1999.90;999.90;;;;;;;30.57;62.32;96124.34;5116588;28;20160;-70
2022/10/17 09:05:18;;;;;;;1999.90;999.90;;;;;;;31.07;59.57;96133.44;5116245;28;20187;-71
2022/10/17 09:07:56;;;;;;;1999.90;999.90;;;;;;;30.71;59.45;96120.50;5115589;28;20168;-71
2022/10/17 09:10:25;;;;;;;1999.90;999.90;;;;;;;31.54;57.71;96115.22;5116338;28;20164;-72
2022/10/17 09:13:18;;;;;;;1999.90;999.90;;;;;;;30.56;60.24;96123.56;5116079;28;20262;-59
2022/10/17 09:15:46;;;;;;;1999.90;999.90;;;;;;;30.98;56.83;96126.03;5115448;28;20243;-66
2022/10/17 09:18:17;;;;;;;1999.90;999.90;;;;;;;30.43;60.72;96131.03;5116020;28;20172;-59
2022/10/17 09:20:58;;;;;;;1999.90;999.90;;;;;;;30.29;62.09;96120.81;5116022;28;20199;-59
2022/10/17 09:23:39;;;;;;;1999.90;999.90;;;;;;;31.49;57.13;96118.81;5116167;28;20160;-59
2022/10/17 09:26:09;;;;;;;1999.90;999.90;;;;;;;31.73;53.98;96127.41;5115044;28;20175;-59
2022/10/17 09:28:37;;;;;;;1999.90;999.90;;;;;;;30.80;57.19;96126.59;5115288;28;20219;-60
2022/10/17 09:31:23;;;;;;;1999.90;999.90;;;;;;;30.84;56.13;96124.28;5115931;28;20174;-59
2022/10/17 09:33:51;;;;;;;1999.90;999.90;;;;;;;30.57;58.88;96135.63;5116026;28;20172;-62
2022/10/17 09:36:19;;;;;;;1999.90;999.90;;;;;;;30.37;59.44;96133.13;5115682;28;20172;-66
2022/10/17 09:38:49;;;;;;;1999.90;999.90;;;;;;;30.98;55.90;96128.06;5115279;28;20178;-66
2022/10/17 09:41:21;;;;;;;1999.90;999.90;;;;;;;31.01;56.85;96129.84;5115347;28;20196;-66
2022/10/17 09:43:47;;;;;;;1999.90;999.90;;;;;;;31.18;56.20;96128.47;5115273;28;20172;-66
2022/10/17 09:46:25;;;;;;;1999.90;999.90;;;;;;;30.78;56.11;96131.25;5115504;28;20178;-66
2022/10/17 09:48:57;;;;;;;1999.90;999.90;;;;;;;30.44;58.11;96132.56;5115060;28;20171;-67
2022/10/17 09:51:24;;;;;;;1999.90;999.90;;;;;;;30.61;57.66;96130.50;5115443;28;20172;-61
2022/10/17 09:53:55;;;;;;;1999.90;999.90;;;;;;;30.79;60.26;96118.66;5114590;28;20172;-61
2022/10/17 09:56:20;;;;;;;1999.90;999.90;;;;;;;30.90;59.15;96129.91;5115376;28;20233;-60
2022/10/17 09:58:54;;;;;;;1999.90;999.90;;;;;;;30.63;57.25;96134.31;5115134;28;20172;-61
2022/10/17 10:01:30;;;;;;;1999.90;999.90;;;;;;;31.23;55.44;96135.41;5116113;28;20191;-61
2022/10/17 10:04:15;;;;;;;1999.90;999.90;;;;;;;30.89;56.23;96140.41;5115242;28;20187;-62
2022/10/17 10:07:00;;;;;;;1999.90;999.90;;;;;;;31.48;54.06;96145.56;5114503;28;20259;-61
2022/10/17 10:09:29;;;;;;;1999.90;999.90;;;;;;;32.04;54.20;96141.06;5114662;28;20170;-60
2022/10/17 10:11:56;;;;;;;1999.90;999.90;;;;;;;32.61;50.49;96142.84;5114611;28;20168;-59
2022/10/17 10:14:34;;;;;;;1999.90;999.90;;;;;;;32.37;50.64;96149.25;5114243;28;20175;-59
2022/10/17 10:17:01;;;;;;;1999.90;999.90;;;;;;;31.63;53.19;96150.84;5114931;28;20194;-59
2022/10/17 10:19:32;;;;;;;1999.90;999.90;;;;;;;31.23;56.73;96146.69;5114904;28;20263;-59
2022/10/17 10:22:04;;;;;;;1999.90;999.90;;;;;;;31.34;56.71;96146.66;5114373;28;20259;-59
2022/10/17 10:24:30;;;;;;;1999.90;999.90;;;;;;;31.54;54.20;96143.47;5114752;28;20181;-59
2022/10/17 10:26:59;;;;;;;1999.90;999.90;;;;;;;31.60;54.23;96140.63;5114273;28;20190;-66
2022/10/17 10:29:31;;;;;;;1999.90;999.90;;;;;;;31.27;55.81;96150.03;5115857;28;20234;-59
2022/10/17 10:32:18;;;;;;;1999.90;999.90;;;;;;;31.35;56.72;96142.53;5114008;28;20195;-61
2022/10/17 10:34:57;;;;;;;1999.90;999.90;;;;;;;31.21;54.00;96149.28;5114581;28;20168;-61
2022/10/17 10:37:28;;;;;;;1999.90;999.90;;;;;;;30.67;57.01;96148.19;5114560;28;20182;-61
2022/10/17 10:39:58;;;;;;;1999.90;999.90;;;;;;;30.10;58.99;96137.47;5113673;28;20191;-61
2022/10/17 10:42:32;;;;;;;1999.90;999.90;;;;;;;29.65;60.18;96141.59;5114580;28;20210;-61
2022/10/17 10:45:03;;;;;;;1999.90;999.90;;;;;;;30.09;60.70;96138.00;5114626;28;20163;-61
2022/10/17 10:47:30;;;;;;;1999.90;999.90;;;;;;;30.59;59.06;96150.00;5114601;28;20187;-60
2022/10/17 10:50:21;;;;;;;1999.90;999.90;;;;;;;30.22;58.87;96139.03;5114431;28;20179;-62
2022/10/17 10:53:04;;;;;;;1999.90;999.90;;;;;;;30.19;58.67;96133.66;5114149;28;20182;-61
2022/10/17 10:55:35;;;;;;;1999.90;999.90;;;;;;;30.27;56.88;96134.66;5114639;28;20172;-61
2022/10/17 10:58:18;;;;;;;1999.90;999.90;;;;;;;29.52;59.96;96137.66;5113938;28;20254;-62
2022/10/17 11:00:44;;;;;;;1999.90;999.90;;;;;;;28.49;64.81;96142.38;5113566;28;20260;-61